Flight Track Log - Related Links

Times and Time Zones

All times are in EDT time to prevent confusion due to time zone crossing. See the ASQ5041 flight status page for this flight to view local times or setup timezone preferences in your user account.

Time Position Orientation Groundspeed Altitude Reporting Facility
EDT Latitude Longitude Course Direction KTS MPH feet Rate Location/Type
Mon 02:52:28 PM 39.2833 -94.7000 196° South 155 178 1,600  Level Kansas City TRACON
Mon 02:53:24 PM 39.2378 -94.7169 196° South 194 223 3,300 1,881 Climbing Kansas City Center
Mon 02:54:26 PM 39.1814 -94.6872 158° South 266 306 5,300 2,274 Climbing Kansas City Center
Mon 02:55:28 PM 39.2044 -94.5728 75° East 315 362 8,000 2,419 Climbing Kansas City Center
Mon 02:56:30 PM 39.2775 -94.5167 31° Northeast 320 368 10,300 1,694 Climbing Kansas City Center
Mon 02:57:32 PM 39.3744 -94.4417 31° Northeast 376 433 11,500 1,171 Climbing Kansas City Center
Mon 02:58:33 PM 39.4661 -94.3708 31° Northeast 399 459 12,700 1,463 Climbing Kansas City Center
Mon 02:59:35 PM 39.5797 -94.2822 31° Northeast 425 489 14,500 1,742 Climbing Kansas City Center
Mon 03:00:37 PM 39.6772 -94.2061 31° Northeast 426 490 16,300 1,935 Climbing Kansas City Center
Mon 03:01:39 PM 39.7558 -94.0683 53° Northeast 439 505 18,500 1,887 Climbing Kansas City Center
Mon 03:02:41 PM 39.8114 -93.9322 62° Northeast 437 503 20,200 1,452 Climbing Kansas City Center
Mon 03:03:43 PM 39.8717 -93.7953 60° Northeast 440 506 21,500 1,258 Climbing Kansas City Center
Mon 03:04:45 PM 39.9117 -93.6461 71° East 448 516 22,800 1,258 Climbing Kansas City Center
Mon 03:05:47 PM 39.9456 -93.4922 74° East 450 518 24,100 1,366 Climbing Kansas City Center
Mon 03:06:48 PM 39.9861 -93.3058 74° East 450 518 25,600 1,366 Climbing Kansas City Center
Mon 03:07:50 PM 40.0181 -93.1497 75° East 451 519 26,900 1,161 Climbing Kansas City Center
Mon 03:08:52 PM 40.0514 -92.9953 74° East 448 516 28,000 1,016 Climbing Kansas City Center
Mon 03:09:54 PM 40.0847 -92.8311 75° East 454 522 29,000 484 Climbing Kansas City Center
Mon 03:10:56 PM 40.1228 -92.6464 75° East 470 541 29,000 145 Level Kansas City Center
Mon 03:11:58 PM 40.1681 -92.4850 70° East 487 560 29,300 871 Climbing Kansas City Center
Mon 03:13:00 PM 40.2314 -92.3261 62° Northeast 489 563 30,800 1,306 Climbing Kansas City Center
Mon 03:14:02 PM 40.2856 -92.1714 65° Northeast 479 551 32,000 1,065 Climbing Kansas City Center
Mon 03:15:04 PM 40.3492 -91.9872 66° East 471 542 33,000 484 Climbing Kansas City Center
Mon 03:16:06 PM 40.4047 -91.8294 65° Northeast 477 549 33,000  Level Kansas City Center
Mon 03:17:08 PM 40.4617 -91.6683 65° Northeast 488 562 33,000  Level Kansas City Center
Mon 03:17:29 PM 40.4853 -91.6028 65° Northeast 492 566 33,000  Level Chicago Center
Mon 03:18:31 PM 40.5417 -91.4408 65° Northeast 492 566 33,000  Level Chicago Center
Mon 03:19:33 PM 40.5950 -91.2878 65° Northeast 490 564 33,000  Level Chicago Center
Mon 03:20:35 PM 40.6617 -91.0911 66° East 491 565 33,000  Level Chicago Center
Mon 03:21:37 PM 40.7183 -90.9250 66° East 497 572 33,000  Level Chicago Center
Mon 03:22:39 PM 40.7636 -90.7456 72° East 512 589 33,000  Level Chicago Center
Mon 03:23:40 PM 40.8083 -90.5650 72° East 516 594 33,000  Level Chicago Center
Mon 03:24:42 PM 40.8542 -90.3847 71° East 516 594 33,000  Level Chicago Center
Mon 03:25:44 PM 40.9042 -90.1836 72° East 520 598 33,000  Level Chicago Center
Mon 03:26:46 PM 40.9475 -90.0031 72° East 519 597 33,000  Level Chicago Center
Mon 03:27:48 PM 40.9900 -89.8225 73° East 518 596 33,000  Level Chicago Center
Mon 03:28:50 PM 41.0331 -89.6483 72° East 519 597 33,000  Level Chicago Center
Mon 03:29:51 PM 41.0850 -89.4286 73° East 519 597 33,000  Level Chicago Center
Mon 03:30:53 PM 41.1286 -89.2433 73° East 522 601 33,000  Level Chicago Center
Mon 03:31:55 PM 41.1692 -89.0608 73° East 518 596 33,000  Level Chicago Center
Mon 03:32:57 PM 41.2106 -88.8786 73° East 519 597 33,000  Level Chicago Center
Mon 03:33:59 PM 41.2539 -88.6950 73° East 523 602 33,000  Level Chicago Center
Mon 03:35:01 PM 41.2953 -88.5128 73° East 520 598 33,000  Level Chicago Center
Mon 03:36:03 PM 41.3453 -88.2939 73° East 515 593 33,000  Level Chicago Center
Mon 03:37:04 PM 41.3792 -88.1406 74° East 516 594 33,000  Level Chicago Center
Mon 03:38:06 PM 41.4314 -87.9197 72° East 520 598 33,000  Level Chicago Center
Mon 03:39:08 PM 41.4717 -87.7261 74° East 517 595 33,000  Level Chicago Center
Mon 03:40:10 PM 41.5108 -87.5456 74° East 514 592 33,000  Level Chicago Center
Mon 03:41:12 PM 41.5489 -87.3653 74° East 508 585 33,000  Level Chicago Center
Mon 03:42:14 PM 41.5881 -87.1833 74° East 511 588 33,000  Level Chicago Center
Mon 03:43:16 PM 41.6264 -87.0028 74° East 509 586 33,000 -194 Level Chicago Center
Mon 03:44:18 PM 41.6647 -86.8211 74° East 510 587 32,600 -677 Descending Chicago Center
Mon 03:45:20 PM 41.6961 -86.6247 78° East 514 592 31,600 -1,016 Descending Chicago Center
Mon 03:46:22 PM 41.7136 -86.4369 83° East 510 587 30,500 -1,122 Descending Chicago Center
Mon 03:47:23 PM 41.7394 -86.2128 81° East 507 583 29,300 -1,073 Descending Chicago Center
Mon 03:48:25 PM 41.7494 -86.0289 86° East 494 568 28,300 -968 Descending Chicago Center
Mon 03:49:27 PM 41.7492 -85.8464 90° East 490 564 27,300 -1,113 Descending Chicago Center
Mon 03:50:29 PM 41.7481 -85.6656 90° East 485 558 26,000 -1,403 Descending Chicago Center
Mon 03:51:31 PM 41.7472 -85.4803 90° East 488 562 24,400 -1,694 Descending Chicago Center
Mon 03:52:33 PM 41.8006 -85.3125 67° East 478 550 22,500 -1,872 Descending Chicago Center
Mon 03:53:36 PM 41.8228 -85.1425 80° East 463 533 20,500 -1,976 Descending Chicago Center
Mon 03:53:58 PM 41.8261 -85.0728 86° East 443 510 19,700 -1,098 Descending Cleveland Center
Mon 03:54:58 PM 41.8261 -84.9083 90° East 443 510 19,000 -350 Descending Cleveland Center
Mon 03:55:58 PM 41.8281 -84.7497 89° East 433 498 19,000  Level Cleveland Center
Mon 03:56:58 PM 41.8269 -84.5989 91° East 419 482 19,000  Level Cleveland Center
Mon 03:57:16 PM 41.8250 -84.5375 92° East 404 465 19,000 -900 Level Cleveland Center
Mon 03:57:58 PM 41.8258 -84.4483 89° East 408 470 18,100 -1,882 Descending Cleveland Center
Mon 03:58:58 PM 41.8289 -84.2981 88° East 403 464 15,800 -2,462 Descending Cleveland Center
Mon 03:59:55 PM 41.8256 -84.1417 92° East 377 434 13,300 -2,094 Descending Cleveland Center
Mon 04:00:44 PM 41.8331 -84.0333 85° East 357 411 12,100 -818 Descending Cleveland Center
Mon 04:01:45 PM 41.8903 -83.9333 52° Northeast 328 377 11,800 -516 Descending Cleveland Center
Mon 04:02:52 PM 41.9494 -83.8303 52° Northeast 295 339 11,000 -372 Descending Cleveland Center
Mon 04:03:54 PM 41.9975 -83.7544 50° Northeast 240 276 11,000  Level Cleveland Center
Mon 04:04:55 PM 42.0492 -83.6928 42° Northeast 251 289 11,000  Level Cleveland Center
Mon 04:05:56 PM 42.1008 -83.6281 43° Northeast 251 289 11,000  Level Cleveland Center
Mon 04:06:57 PM 42.1583 -83.5861 28° Northeast 222 255 11,000  Level Cleveland Center
Mon 04:07:59 PM 42.2136 -83.5467 28° Northeast 226 260 11,000 -244 Level Cleveland Center
Mon 04:09:00 PM 42.2708 -83.5072 27° Northeast 223 257 10,500 -984 Descending Cleveland Center
Mon 04:10:01 PM 42.3239 -83.4703 27° Northeast 207 238 9,000 -1,672 Descending Cleveland Center
Mon 04:11:02 PM 42.3747 -83.4361 26° Northeast 203 234 7,100 -976 Descending Cleveland Center
Mon 04:12:04 PM 42.4258 -83.3961 30° Northeast 197 227 7,000 -326 Descending Cleveland Center
Mon 04:13:11 PM 42.4789 -83.3592 27° Northeast 194 223 6,400 -885 Descending Cleveland Center
Mon 04:14:06 PM 42.5253 -83.3303 25° Northeast 203 234 5,200 -1,309 Descending Cleveland Center

Login

Don't have an account? Register now (free) for customized features, flight alerts, and more!